createdAt,value
2022-11-19T00:01:22.749Z,15.72
2022-11-19T00:03:52.605Z,15.37
2022-11-19T00:06:25.264Z,15.11
2022-11-19T00:08:52.381Z,15.39
2022-11-19T00:11:42.014Z,15.68
2022-11-19T00:14:10.813Z,15.79
2022-11-19T00:16:37.524Z,15.99
2022-11-19T00:19:05.004Z,15.51
2022-11-19T00:21:31.911Z,15.57
2022-11-19T00:23:58.938Z,15.53
2022-11-19T00:26:25.905Z,15.62
2022-11-19T00:28:52.663Z,15.29
2022-11-19T00:31:19.558Z,15.45
2022-11-19T00:33:47.229Z,15.42
2022-11-19T00:36:15.454Z,15.50
2022-11-19T00:38:43.372Z,15.48
2022-11-19T00:41:10.713Z,15.73
2022-11-19T00:43:47.308Z,15.61
2022-11-19T00:46:16.086Z,16.18
2022-11-19T00:48:43.004Z,16.42
2022-11-19T00:51:10.641Z,16.71
2022-11-19T00:53:37.797Z,16.09
2022-11-19T00:56:07.297Z,15.97
2022-11-19T00:58:34.058Z,15.67
2022-11-19T01:01:01.075Z,15.84
2022-11-19T01:03:27.849Z,15.96
2022-11-19T01:05:54.637Z,16.26
2022-11-19T01:08:21.543Z,16.36
2022-11-19T01:10:48.385Z,16.21
2022-11-19T01:13:33.611Z,16.32
2022-11-19T01:16:01.101Z,16.54
2022-11-19T01:18:28.581Z,16.62
2022-11-19T01:20:55.620Z,16.40
2022-11-19T01:23:22.684Z,16.74
2022-11-19T01:25:49.418Z,16.76
2022-11-19T01:28:16.600Z,16.57
2022-11-19T01:30:43.839Z,16.55
2022-11-19T01:33:10.871Z,16.70
2022-11-19T01:35:37.714Z,16.59
2022-11-19T01:38:05.304Z,16.38
2022-11-19T01:40:32.722Z,16.23
2022-11-19T01:42:59.604Z,16.21
2022-11-19T01:45:52.789Z,15.91
2022-11-19T01:48:27.268Z,16.08
2022-11-19T01:51:02.271Z,16.38
2022-11-19T01:53:34.720Z,16.38
2022-11-19T01:56:04.974Z,16.01
2022-11-19T01:58:36.405Z,15.48
2022-11-19T02:01:03.251Z,15.85
2022-11-19T02:03:32.285Z,16.29
2022-11-19T02:06:01.660Z,15.68
2022-11-19T02:08:45.018Z,15.65
2022-11-19T02:11:42.733Z,15.89
2022-11-19T02:14:18.358Z,15.97
2022-11-19T02:17:06.040Z,16.12
2022-11-19T02:20:10.028Z,15.31
2022-11-19T02:22:55.417Z,15.90
2022-11-19T02:25:31.165Z,15.94
2022-11-19T02:28:33.372Z,15.69
2022-11-19T02:31:08.812Z,16.02
2022-11-19T02:33:38.442Z,15.98
2022-11-19T02:36:15.238Z,15.40
2022-11-19T02:39:01.217Z,15.59
2022-11-19T02:41:36.272Z,15.62
2022-11-19T02:44:47.403Z,15.23
2022-11-19T02:47:19.018Z,15.78
2022-11-19T02:49:46.675Z,15.85
2022-11-19T02:52:17.763Z,15.87
2022-11-19T02:54:44.832Z,15.91
2022-11-19T02:57:12.808Z,15.99
2022-11-19T03:00:17.114Z,16.08
2022-11-19T03:03:08.359Z,16.06
2022-11-19T03:05:41.581Z,16.07
2022-11-19T03:08:08.509Z,16.18
2022-11-19T03:11:06.703Z,16.19
2022-11-19T03:14:17.226Z,16.01
2022-11-19T03:17:08.163Z,15.67
2022-11-19T03:19:48.834Z,15.55
2022-11-19T03:22:21.727Z,15.50
2022-11-19T03:24:59.080Z,15.41
2022-11-19T03:27:31.358Z,15.21
2022-11-19T03:30:01.886Z,15.32
2022-11-19T03:32:41.071Z,14.91
2022-11-19T03:35:15.115Z,15.27
2022-11-19T03:37:46.046Z,14.90
2022-11-19T03:40:15.651Z,15.00
2022-11-19T03:42:45.993Z,15.35
2022-11-19T03:45:18.200Z,15.49
2022-11-19T03:47:47.883Z,15.57
2022-11-19T03:50:35.144Z,14.84
2022-11-19T03:53:04.497Z,14.99
2022-11-19T03:55:38.201Z,15.02
2022-11-19T03:58:07.700Z,14.96
2022-11-19T04:00:34.466Z,14.25
2022-11-19T04:03:01.382Z,14.57
2022-11-19T04:05:29.175Z,14.86
2022-11-19T04:07:56.118Z,14.99
2022-11-19T04:10:24.063Z,14.96
2022-11-19T04:12:50.776Z,14.85
2022-11-19T04:15:17.909Z,14.86
2022-11-19T04:17:44.679Z,14.73
2022-11-19T04:20:11.648Z,13.94
2022-11-19T04:22:38.412Z,14.25
2022-11-19T04:25:05.957Z,13.50
2022-11-19T04:27:32.697Z,13.74
2022-11-19T04:29:59.450Z,13.88
2022-11-19T04:32:26.229Z,14.11
2022-11-19T04:34:53.164Z,14.35
2022-11-19T04:37:19.821Z,14.42
2022-11-19T04:39:46.675Z,14.49
2022-11-19T04:42:13.403Z,14.21
2022-11-19T04:44:40.151Z,14.28
2022-11-19T04:47:06.964Z,14.35
2022-11-19T04:49:33.826Z,14.56
2022-11-19T04:52:00.637Z,14.68
2022-11-19T04:54:27.448Z,14.82
2022-11-19T04:56:54.155Z,14.85
2022-11-19T04:59:21.043Z,14.91
2022-11-19T05:01:49.406Z,14.86
2022-11-19T05:04:16.438Z,14.63
2022-11-19T05:06:43.331Z,14.63
2022-11-19T05:09:10.043Z,14.43
2022-11-19T05:11:36.929Z,14.16
2022-11-19T05:14:03.622Z,14.25
2022-11-19T05:16:30.582Z,14.25
2022-11-19T05:18:57.251Z,14.24
2022-11-19T05:21:24.026Z,14.33
2022-11-19T05:23:50.828Z,14.22
2022-11-19T05:26:17.844Z,14.46
2022-11-19T05:28:44.574Z,13.85
2022-11-19T05:31:11.928Z,14.27
2022-11-19T05:33:38.638Z,14.47
2022-11-19T05:36:06.040Z,14.40
2022-11-19T05:38:32.820Z,13.87
2022-11-19T05:40:59.572Z,13.89
2022-11-19T05:43:26.287Z,13.69
2022-11-19T05:45:53.201Z,13.68
2022-11-19T05:48:20.053Z,13.80
2022-11-19T05:50:46.804Z,13.88
2022-11-19T05:53:14.672Z,13.99
2022-11-19T05:55:41.389Z,14.05
2022-11-19T05:58:08.183Z,13.88
2022-11-19T06:00:35.009Z,14.23
2022-11-19T06:03:01.927Z,14.42
2022-11-19T06:05:28.699Z,14.75
2022-11-19T06:07:55.545Z,14.59
2022-11-19T06:10:22.248Z,14.69
2022-11-19T06:12:49.216Z,14.45
2022-11-19T06:15:16.203Z,14.35
2022-11-19T06:17:43.033Z,14.21
2022-11-19T06:20:11.267Z,14.29
2022-11-19T06:22:39.057Z,14.36
2022-11-19T06:25:07.756Z,14.53
2022-11-19T06:27:35.082Z,14.51
2022-11-19T06:30:02.260Z,13.89
2022-11-19T06:32:29.082Z,13.27
2022-11-19T06:34:55.790Z,13.95
2022-11-19T06:37:22.683Z,14.04
2022-11-19T06:39:49.604Z,14.10
2022-11-19T06:42:34.995Z,14.02
2022-11-19T06:45:11.327Z,13.78
2022-11-19T06:47:39.814Z,13.94
2022-11-19T06:50:09.936Z,14.00
2022-11-19T06:52:36.795Z,14.15
2022-11-19T06:55:04.134Z,14.44
2022-11-19T06:57:30.894Z,14.41
2022-11-19T06:59:57.611Z,14.38
2022-11-19T07:02:24.409Z,14.04
2022-11-19T07:04:52.152Z,13.86
2022-11-19T07:07:19.110Z,13.95
2022-11-19T07:09:45.818Z,14.20
2022-11-19T07:12:12.602Z,14.18
2022-11-19T07:14:39.353Z,14.59
2022-11-19T07:17:07.267Z,14.24
2022-11-19T07:19:33.981Z,14.64
2022-11-19T07:22:00.819Z,14.81
2022-11-19T07:24:27.533Z,14.76
2022-11-19T07:26:56.024Z,14.95
2022-11-19T07:29:23.015Z,15.01
2022-11-19T07:31:50.840Z,15.21
2022-11-19T07:34:18.204Z,15.41
2022-11-19T07:36:45.952Z,14.92
2022-11-19T07:39:12.901Z,14.50
2022-11-19T07:41:58.682Z,15.18
2022-11-19T07:44:25.686Z,14.97
2022-11-19T07:46:52.940Z,15.03
2022-11-19T07:49:20.235Z,15.09
2022-11-19T07:51:47.630Z,15.64
2022-11-19T07:54:14.714Z,15.78
2022-11-19T07:56:41.573Z,16.00
2022-11-19T07:59:08.934Z,16.32
2022-11-19T08:01:36.180Z,15.83
2022-11-19T08:04:04.460Z,15.66
2022-11-19T08:06:33.347Z,15.60
2022-11-19T08:09:01.254Z,15.45
2022-11-19T08:11:28.655Z,15.80
2022-11-19T08:13:55.528Z,15.47
2022-11-19T08:16:41.004Z,15.20
2022-11-19T08:19:10.222Z,15.42
2022-11-19T08:21:40.842Z,15.47
2022-11-19T08:24:08.973Z,15.99
2022-11-19T08:26:36.521Z,16.08
2022-11-19T08:29:03.654Z,15.55
2022-11-19T08:31:30.546Z,15.92
2022-11-19T08:33:57.398Z,16.42
2022-11-19T08:36:24.176Z,16.53
2022-11-19T08:38:51.080Z,16.34
2022-11-19T08:41:36.535Z,15.92
2022-11-19T08:44:03.767Z,16.05
2022-11-19T08:46:30.507Z,16.77
2022-11-19T08:48:57.313Z,17.09
2022-11-19T08:51:24.040Z,16.55
2022-11-19T08:53:53.839Z,17.01
2022-11-19T08:56:21.481Z,17.13
2022-11-19T08:58:49.014Z,17.55
2022-11-19T09:01:17.941Z,18.00
2022-11-19T09:03:45.087Z,18.06
2022-11-19T09:06:12.513Z,18.08
2022-11-19T09:08:40.333Z,18.30
2022-11-19T09:11:09.605Z,18.57
2022-11-19T09:13:36.463Z,18.58
2022-11-19T09:16:03.751Z,18.53
2022-11-19T09:18:32.386Z,18.24
2022-11-19T09:20:59.630Z,17.64
2022-11-19T09:23:27.531Z,18.39
2022-11-19T09:25:58.817Z,18.91
2022-11-19T09:28:26.289Z,19.23
2022-11-19T09:31:01.127Z,19.56
2022-11-19T09:33:30.831Z,19.22
2022-11-19T09:35:57.834Z,19.04
2022-11-19T09:38:24.837Z,19.09
2022-11-19T09:40:54.224Z,19.75
2022-11-19T09:43:41.980Z,20.07
2022-11-19T09:46:30.250Z,20.30
2022-11-19T09:49:03.452Z,20.45
2022-11-19T09:51:33.866Z,20.21
2022-11-19T09:54:27.068Z,20.48
2022-11-19T09:57:00.384Z,20.18
2022-11-19T09:59:40.317Z,19.63
2022-11-19T10:02:18.640Z,20.52
2022-11-19T10:04:48.014Z,20.75
2022-11-19T10:07:24.045Z,20.48
2022-11-19T10:10:18.408Z,20.52
2022-11-19T10:13:36.291Z,21.13
2022-11-19T10:16:22.632Z,21.70
2022-11-19T10:19:00.315Z,21.66
2022-11-19T10:21:52.180Z,21.78
2022-11-19T10:24:42.139Z,21.43
2022-11-19T10:27:32.418Z,21.21
2022-11-19T10:30:06.463Z,21.56
2022-11-19T10:32:38.365Z,21.13
2022-11-19T10:35:17.061Z,21.46
2022-11-19T10:37:56.500Z,21.29
2022-11-19T10:40:26.089Z,21.68
2022-11-19T10:42:57.673Z,21.66
2022-11-19T10:45:27.752Z,22.28
2022-11-19T10:48:09.184Z,22.04
2022-11-19T10:50:37.218Z,22.55
2022-11-19T10:53:32.341Z,21.49
2022-11-19T10:56:04.135Z,22.29
2022-11-19T10:58:39.562Z,21.90
2022-11-19T11:01:28.200Z,22.09
2022-11-19T11:04:19.170Z,22.06
2022-11-19T11:06:55.898Z,22.26
2022-11-19T11:09:29.943Z,21.83
2022-11-19T11:12:37.032Z,21.54
2022-11-19T11:15:12.945Z,21.87
2022-11-19T11:17:42.621Z,21.45
2022-11-19T11:20:18.103Z,21.65
2022-11-19T11:22:49.562Z,21.82
2022-11-19T11:25:26.978Z,22.07
2022-11-19T11:28:18.769Z,21.78
2022-11-19T11:31:02.164Z,22.12
2022-11-19T11:33:35.537Z,22.73
2022-11-19T11:36:19.639Z,22.70
2022-11-19T11:38:49.289Z,22.46
2022-11-19T11:42:05.573Z,22.61
2022-11-19T11:44:34.660Z,23.33
2022-11-19T11:47:14.020Z,22.87
2022-11-19T11:49:44.338Z,23.02
2022-11-19T11:52:22.897Z,24.54
2022-11-19T11:55:04.970Z,25.52
2022-11-19T11:57:34.495Z,25.14
2022-11-19T12:00:06.978Z,24.78
2022-11-19T12:02:35.395Z,24.46
2022-11-19T12:05:06.964Z,23.71
2022-11-19T12:08:04.124Z,23.40
2022-11-19T12:10:36.871Z,23.42
2022-11-19T12:13:37.980Z,23.33
2022-11-19T12:16:28.040Z,22.25
2022-11-19T12:19:13.514Z,21.78
2022-11-19T12:21:45.928Z,22.28
2022-11-19T12:24:59.092Z,22.19
2022-11-19T12:27:50.627Z,22.88
2022-11-19T12:30:29.216Z,23.61
2022-11-19T12:32:58.707Z,23.87
2022-11-19T12:35:45.702Z,22.92
2022-11-19T12:38:29.461Z,23.27
2022-11-19T12:40:56.390Z,22.87
2022-11-19T12:43:53.759Z,22.70
2022-11-19T12:46:28.712Z,22.55
2022-11-19T12:49:29.615Z,22.70
2022-11-19T12:52:18.216Z,23.20
2022-11-19T12:54:50.657Z,22.65
2022-11-19T12:57:50.889Z,21.88
2022-11-19T13:00:22.542Z,21.90
2022-11-19T13:02:57.256Z,22.12
2022-11-19T13:05:38.498Z,22.33
2022-11-19T13:08:24.763Z,22.23
2022-11-19T13:11:04.709Z,22.41
2022-11-19T13:13:35.538Z,21.61
2022-11-19T13:16:16.755Z,21.55
2022-11-19T13:18:48.153Z,21.65
2022-11-19T13:21:38.911Z,21.89
2022-11-19T13:24:21.538Z,21.96
2022-11-19T13:26:48.842Z,20.89
2022-11-19T13:29:24.594Z,21.61
2022-11-19T13:32:20.233Z,21.69
2022-11-19T13:35:05.758Z,21.78
2022-11-19T13:38:02.519Z,21.46
2022-11-19T13:40:55.423Z,21.50
2022-11-19T13:43:41.306Z,21.94
2022-11-19T13:46:10.969Z,21.71
2022-11-19T13:48:43.372Z,21.84
2022-11-19T13:51:44.785Z,22.07
2022-11-19T13:54:34.041Z,21.94
2022-11-19T13:57:02.327Z,21.93
2022-11-19T13:59:39.605Z,21.91
2022-11-19T14:02:31.495Z,21.64
2022-11-19T14:05:26.167Z,21.97
2022-11-19T14:08:01.785Z,21.85
2022-11-19T14:10:40.629Z,21.42
2022-11-19T14:13:41.820Z,21.82
2022-11-19T14:16:54.395Z,21.69
2022-11-19T14:19:39.815Z,21.48
2022-11-19T14:22:50.042Z,21.55
2022-11-19T14:26:00.250Z,21.34
2022-11-19T14:28:42.393Z,21.48
2022-11-19T14:31:09.596Z,21.49
2022-11-19T14:33:57.347Z,21.17
2022-11-19T14:36:47.573Z,21.17
2022-11-19T14:39:25.868Z,21.29
2022-11-19T14:42:11.203Z,21.27
2022-11-19T14:44:38.149Z,21.07
2022-11-19T14:47:24.416Z,21.31
2022-11-19T14:49:54.367Z,21.09
2022-11-19T14:52:33.856Z,21.04
2022-11-19T14:55:06.778Z,21.13
2022-11-19T14:57:39.466Z,21.01
2022-11-19T15:00:06.789Z,20.80
2022-11-19T15:02:47.288Z,20.76
2022-11-19T15:05:20.948Z,21.02
2022-11-19T15:07:54.463Z,20.95
2022-11-19T15:10:33.798Z,21.12
2022-11-19T15:13:24.009Z,21.00
2022-11-19T15:15:55.350Z,20.88
2022-11-19T15:18:40.323Z,20.87
2022-11-19T15:21:37.962Z,20.84
2022-11-19T15:24:13.291Z,20.69
2022-11-19T15:26:58.703Z,20.75
2022-11-19T15:29:43.142Z,20.80
2022-11-19T15:32:22.323Z,20.43
2022-11-19T15:35:13.412Z,20.69
2022-11-19T15:37:47.763Z,20.80
2022-11-19T15:40:21.424Z,20.51
2022-11-19T15:42:56.974Z,20.56
2022-11-19T15:45:24.937Z,20.50
2022-11-19T15:48:09.610Z,20.37
2022-11-19T15:50:37.314Z,20.46
2022-11-19T15:53:18.058Z,20.56
2022-11-19T15:55:59.889Z,20.68
2022-11-19T15:58:49.645Z,20.64
2022-11-19T16:01:19.010Z,20.45
2022-11-19T16:03:47.153Z,20.61
2022-11-19T16:06:18.918Z,20.51
2022-11-19T16:08:47.650Z,20.13
2022-11-19T16:11:39.487Z,20.54
2022-11-19T16:14:41.573Z,20.50
2022-11-19T16:17:32.940Z,20.49
2022-11-19T16:20:04.770Z,20.35
2022-11-19T16:22:33.903Z,20.20
2022-11-19T16:25:07.407Z,20.31
2022-11-19T16:27:34.342Z,20.51
2022-11-19T16:30:01.101Z,20.35
2022-11-19T16:32:28.014Z,20.54
2022-11-19T16:35:10.198Z,20.43
2022-11-19T16:37:37.718Z,20.42
2022-11-19T16:40:05.075Z,20.36
2022-11-19T16:42:32.789Z,20.17
2022-11-19T16:45:17.806Z,19.93
2022-11-19T16:48:05.950Z,20.14
2022-11-19T16:50:42.259Z,19.96
2022-11-19T16:53:10.742Z,20.04
2022-11-19T16:55:40.535Z,19.94
2022-11-19T16:58:17.789Z,19.93
2022-11-19T17:00:52.432Z,19.88
2022-11-19T17:03:32.067Z,19.60
2022-11-19T17:05:59.430Z,19.77
2022-11-19T17:08:29.596Z,19.86
2022-11-19T17:11:38.971Z,19.74
2022-11-19T17:14:13.041Z,19.82
2022-11-19T17:16:44.844Z,19.69
2022-11-19T17:19:31.435Z,19.59
2022-11-19T17:22:03.994Z,19.59
2022-11-19T17:24:43.093Z,19.61
2022-11-19T17:27:32.136Z,19.48
2022-11-19T17:30:04.256Z,19.75
2022-11-19T17:32:38.979Z,19.59
2022-11-19T17:35:29.281Z,19.73
2022-11-19T17:37:58.919Z,19.36
2022-11-19T17:40:25.843Z,19.20
2022-11-19T17:43:11.724Z,19.53
2022-11-19T17:45:38.571Z,19.41
2022-11-19T17:48:19.647Z,19.88
2022-11-19T17:50:47.003Z,19.83
2022-11-19T17:53:13.782Z,19.74
2022-11-19T17:55:43.498Z,19.32
2022-11-19T17:58:10.305Z,19.65
2022-11-19T18:00:38.555Z,19.58
2022-11-19T18:03:05.356Z,19.65
2022-11-19T18:05:34.861Z,19.65
2022-11-19T18:08:01.639Z,18.97
2022-11-19T18:10:29.541Z,19.27
2022-11-19T18:12:56.504Z,19.35
2022-11-19T18:15:23.211Z,19.55
2022-11-19T18:17:50.166Z,18.96
2022-11-19T18:20:17.017Z,19.26
2022-11-19T18:22:43.944Z,19.42
2022-11-19T18:25:17.461Z,19.47
2022-11-19T18:27:45.049Z,18.76
2022-11-19T18:30:13.001Z,19.36
2022-11-19T18:32:40.215Z,19.40
2022-11-19T18:35:18.487Z,19.22
2022-11-19T18:37:45.788Z,19.12
2022-11-19T18:40:13.866Z,19.41
2022-11-19T18:43:00.607Z,18.80
2022-11-19T18:45:27.808Z,19.05
2022-11-19T18:47:54.761Z,18.95
2022-11-19T18:50:25.461Z,19.01
2022-11-19T18:52:56.429Z,19.15
2022-11-19T18:55:23.227Z,18.87
2022-11-19T18:57:51.166Z,18.82
2022-11-19T19:00:18.299Z,18.74
2022-11-19T19:02:45.136Z,18.83
2022-11-19T19:05:12.010Z,18.65
2022-11-19T19:07:38.979Z,18.98
2022-11-19T19:10:06.278Z,19.12
2022-11-19T19:12:33.083Z,19.13
2022-11-19T19:15:00.018Z,18.90
2022-11-19T19:17:26.755Z,18.87
2022-11-19T19:19:53.586Z,18.97
2022-11-19T19:22:20.776Z,18.18
2022-11-19T19:24:48.006Z,18.51
2022-11-19T19:27:15.364Z,18.44
2022-11-19T19:29:42.390Z,18.34
2022-11-19T19:32:09.292Z,18.50
2022-11-19T19:34:36.499Z,18.59
2022-11-19T19:37:04.386Z,18.43
2022-11-19T19:39:31.347Z,18.64
2022-11-19T19:41:58.354Z,18.49
2022-11-19T19:44:25.167Z,18.69
2022-11-19T19:46:52.279Z,18.10
2022-11-19T19:49:19.681Z,18.19
2022-11-19T19:51:47.391Z,18.69
2022-11-19T19:54:14.174Z,18.56
2022-11-19T19:56:41.580Z,18.20
2022-11-19T19:59:11.680Z,17.67
2022-11-19T20:01:38.559Z,17.95
2022-11-19T20:04:09.017Z,18.48
2022-11-19T20:06:41.036Z,18.48
2022-11-19T20:09:08.956Z,18.68
2022-11-19T20:11:37.234Z,18.66
2022-11-19T20:14:04.709Z,18.69
2022-11-19T20:16:32.874Z,18.41
2022-11-19T20:19:00.905Z,18.44
2022-11-19T20:21:31.645Z,18.03
2022-11-19T20:23:58.762Z,18.14
2022-11-19T20:26:28.089Z,18.36
2022-11-19T20:28:56.402Z,18.46
2022-11-19T20:31:23.909Z,18.81
2022-11-19T20:33:59.093Z,19.00
2022-11-19T20:36:28.177Z,18.81
2022-11-19T20:38:57.457Z,19.01
2022-11-19T20:41:43.792Z,18.51
2022-11-19T20:44:21.357Z,18.45
2022-11-19T20:46:55.522Z,18.66
2022-11-19T20:49:25.749Z,18.72
2022-11-19T20:51:53.030Z,18.76
2022-11-19T20:54:21.541Z,18.69
2022-11-19T20:56:49.547Z,18.70
2022-11-19T20:59:16.951Z,18.66
2022-11-19T21:01:43.779Z,17.89
2022-11-19T21:04:11.904Z,18.43
2022-11-19T21:06:39.053Z,18.62
2022-11-19T21:09:06.039Z,18.63
2022-11-19T21:11:33.323Z,18.62
2022-11-19T21:14:00.419Z,18.95
2022-11-19T21:16:28.940Z,18.66
2022-11-19T21:18:56.122Z,18.52
2022-11-19T21:21:24.233Z,18.34
2022-11-19T21:23:52.886Z,18.47
2022-11-19T21:26:21.857Z,18.51
2022-11-19T21:28:54.091Z,18.55
2022-11-19T21:31:23.681Z,17.80
2022-11-19T21:33:50.344Z,18.13
2022-11-19T21:36:17.292Z,18.19
2022-11-19T21:38:44.082Z,17.99
2022-11-19T21:41:11.900Z,18.11
2022-11-19T21:43:38.629Z,18.69
2022-11-19T21:46:08.438Z,18.78
2022-11-19T21:48:37.405Z,18.93
2022-11-19T21:51:08.238Z,18.22
2022-11-19T21:53:36.143Z,18.74
2022-11-19T21:56:03.355Z,18.23
2022-11-19T21:58:31.250Z,18.54
2022-11-19T22:00:59.512Z,18.78
2022-11-19T22:03:32.322Z,18.50
2022-11-19T22:06:00.473Z,18.26
2022-11-19T22:08:31.208Z,18.48
2022-11-19T22:10:58.700Z,18.82
2022-11-19T22:13:25.961Z,18.57
2022-11-19T22:16:00.872Z,18.36
2022-11-19T22:18:27.626Z,18.70
2022-11-19T22:21:03.833Z,18.43
2022-11-19T22:23:30.865Z,18.67
2022-11-19T22:26:04.281Z,18.82
2022-11-19T22:28:31.157Z,18.18
2022-11-19T22:30:57.809Z,18.11
2022-11-19T22:33:24.626Z,18.50
2022-11-19T22:35:51.326Z,18.74
2022-11-19T22:38:18.194Z,18.43
2022-11-19T22:40:44.900Z,18.76
2022-11-19T22:43:11.727Z,18.43
2022-11-19T22:45:38.365Z,18.94
2022-11-19T22:48:06.411Z,19.18
2022-11-19T22:50:33.265Z,18.83
2022-11-19T22:52:59.926Z,18.64
2022-11-19T22:55:26.691Z,19.00
2022-11-19T22:57:53.695Z,18.80
2022-11-19T23:00:38.654Z,18.57
2022-11-19T23:03:05.726Z,18.95
2022-11-19T23:05:36.984Z,19.06
2022-11-19T23:08:06.080Z,18.95
2022-11-19T23:10:33.665Z,18.97
2022-11-19T23:13:19.851Z,18.12
2022-11-19T23:16:05.665Z,19.14
2022-11-19T23:18:38.954Z,19.39
2022-11-19T23:21:09.731Z,18.86
2022-11-19T23:23:36.878Z,18.38
2022-11-19T23:26:06.101Z,18.54
2022-11-19T23:28:34.043Z,19.08
2022-11-19T23:31:06.217Z,18.83
2022-11-19T23:33:33.201Z,18.50
2022-11-19T23:36:04.901Z,18.51
2022-11-19T23:38:32.302Z,18.92
2022-11-19T23:41:00.617Z,19.30
2022-11-19T23:43:29.049Z,18.56
2022-11-19T23:46:02.829Z,18.52
2022-11-19T23:48:30.474Z,18.56
2022-11-19T23:51:04.003Z,18.46
2022-11-19T23:53:31.090Z,19.00
2022-11-19T23:55:58.521Z,18.57
2022-11-19T23:58:25.845Z,18.89
